< < Back
Terminal Aerodrome Forecast


Current Version              Previous Versions:   1  2  3  4  5  6  7  8  9  

Terminal Aerodrome Forecast

453
FTUS44 KMOB 011700
TAFPNS
TAF
KPNS 011721Z 0118/0218 14010G15KT P6SM VCTS SCT030CB
      TEMPO 0118/0121 BKN030CB
     FM012100 16011G16KT P6SM FEW035
     FM020100 19008KT P6SM SCT250
     FM021400 09004KT P6SM VCSH BKN015=

Latest METAR

189
SAUS70 KWBC 011900 RRQ
MTRPNS
METAR KPNS 011853Z 14011KT 10SM FEW031 31/23 A3008 RMK AO2 SLP188
T03110233


USA.gov is the U.S. government's official web portal to all federal, state and local government web resources and services.